Time;durP1;ratioP1;P1;durP2;ratioP2;P2;SDS_P1;SDS_P2;PMS_P1;PMS_P2;Temp;Humidity;BMP_temperature;BMP_pressure;BME280_temperature;BME280_humidity;BME280_pressure;Samples;Min_cycle;Max_cycle;Signal;HPM_P1;HPM_P2
2021/10/18 00:00:38;;;;;;;48.55;22.55;;;9.50;99.90;;;;;;5032410;28;20541;-68
2021/10/18 00:03:03;;;;;;;45.85;21.30;;;9.50;99.90;;;;;;5031200;28;20029;-68
2021/10/18 00:05:29;;;;;;;53.03;24.42;;;9.50;99.90;;;;;;5032519;28;20079;-68
2021/10/18 00:07:55;;;;;;;49.97;24.05;;;9.40;99.90;;;;;;5032122;28;20117;-68
2021/10/18 00:10:21;;;;;;;55.58;24.50;;;9.30;99.90;;;;;;5032053;28;20112;-68
2021/10/18 00:12:47;;;;;;;55.78;24.88;;;9.30;99.90;;;;;;5047476;28;20068;-68
2021/10/18 00:15:16;;;;;;;54.70;26.50;;;9.20;99.90;;;;;;5031932;28;20075;-68
2021/10/18 00:17:43;;;;;;;58.70;26.40;;;9.20;99.90;;;;;;5031875;28;20613;-68
2021/10/18 00:20:16;;;;;;;60.78;26.23;;;9.20;99.90;;;;;;5030759;28;20417;-68
2021/10/18 00:22:42;;;;;;;51.65;26.77;;;9.10;99.90;;;;;;5032294;28;20104;-68
2021/10/18 00:25:09;;;;;;;56.17;26.13;;;9.10;99.90;;;;;;5047288;28;20033;-68
2021/10/18 00:27:35;;;;;;;61.08;27.30;;;9.10;99.90;;;;;;5030825;28;20120;-68
2021/10/18 00:30:03;;;;;;;54.25;25.40;;;9.10;99.90;;;;;;5032151;28;20083;-68
2021/10/18 00:32:29;;;;;;;54.90;24.77;;;9.00;99.90;;;;;;5032042;28;20037;-68
2021/10/18 00:34:55;;;;;;;55.53;25.23;;;9.00;99.90;;;;;;5031747;28;20505;-68
2021/10/18 00:37:21;;;;;;;50.45;23.90;;;8.80;99.90;;;;;;5033749;28;20369;-68
2021/10/18 00:39:47;;;;;;;55.50;24.35;;;8.80;99.90;;;;;;5051521;28;20079;-69
2021/10/18 00:42:12;;;;;;;52.65;24.10;;;8.70;99.90;;;;;;5050892;28;20072;-68
2021/10/18 00:44:39;;;;;;;49.85;23.05;;;8.60;99.90;;;;;;5034861;28;20026;-68
2021/10/18 00:47:05;;;;;;;54.63;25.25;;;8.50;99.90;;;;;;5035511;28;20041;-68
2021/10/18 00:49:31;;;;;;;56.08;25.05;;;8.50;99.90;;;;;;5035589;28;20025;-68
2021/10/18 00:51:58;;;;;;;55.25;25.10;;;8.60;99.90;;;;;;5050503;28;20391;-68
2021/10/18 00:54:24;;;;;;;60.92;24.60;;;8.60;99.90;;;;;;5050964;28;20029;-68
2021/10/18 00:56:51;;;;;;;53.58;25.50;;;8.60;99.90;;;;;;5051000;28;20021;-68
2021/10/18 00:59:17;;;;;;;51.22;23.90;;;8.60;99.90;;;;;;5035450;28;20509;-68
2021/10/18 01:01:44;;;;;;;56.20;25.45;;;8.60;99.90;;;;;;5035269;28;20029;-68
2021/10/18 01:04:11;;;;;;;62.78;27.02;;;8.60;99.90;;;;;;5035287;28;20065;-68
2021/10/18 01:06:37;;;;;;;53.40;25.73;;;8.60;99.90;;;;;;5035505;28;20034;-67
2021/10/18 01:09:03;;;;;;;54.35;24.38;;;8.60;99.90;;;;;;5050829;28;20037;-67
2021/10/18 01:11:28;;;;;;;56.53;26.00;;;8.60;99.90;;;;;;5050565;28;20052;-68
2021/10/18 01:13:54;;;;;;;49.53;23.88;;;8.60;99.90;;;;;;5050746;28;20033;-68
2021/10/18 01:16:20;;;;;;;52.08;24.58;;;8.70;99.90;;;;;;5034855;28;20129;-68
2021/10/18 01:18:46;;;;;;;47.38;22.88;;;8.60;99.90;;;;;;5050319;28;20561;-68
2021/10/18 01:21:11;;;;;;;52.08;23.85;;;8.60;99.90;;;;;;5035003;28;20044;-68
2021/10/18 01:23:37;;;;;;;47.28;22.08;;;8.60;99.90;;;;;;5034035;28;20030;-68
2021/10/18 01:26:03;;;;;;;48.63;22.52;;;8.50;99.90;;;;;;5033713;28;20037;-68
2021/10/18 01:28:29;;;;;;;53.97;23.35;;;8.50;99.90;;;;;;5035002;28;20041;-68
2021/10/18 01:30:55;;;;;;;48.50;22.00;;;8.50;99.90;;;;;;5050576;28;20088;-68
2021/10/18 01:33:21;;;;;;;45.33;21.63;;;8.50;99.90;;;;;;5034723;28;20429;-68
2021/10/18 01:35:46;;;;;;;40.75;19.33;;;8.60;99.90;;;;;;5035101;28;20109;-68
2021/10/18 01:38:12;;;;;;;46.45;22.02;;;8.50;99.90;;;;;;5034540;28;20037;-68
2021/10/18 01:40:38;;;;;;;47.40;23.20;;;8.60;99.90;;;;;;5034772;28;20037;-68
2021/10/18 01:43:04;;;;;;;42.70;19.67;;;8.60;99.90;;;;;;5034715;28;20091;-67
2021/10/18 01:45:30;;;;;;;50.15;21.58;;;8.50;99.90;;;;;;5033678;28;20073;-68
2021/10/18 01:47:56;;;;;;;42.72;21.05;;;8.50;99.90;;;;;;5034516;28;20116;-68
2021/10/18 01:50:25;;;;;;;42.20;18.60;;;8.40;99.90;;;;;;5034465;28;20121;-67
2021/10/18 01:52:53;;;;;;;48.03;20.55;;;8.40;99.90;;;;;;5049905;28;20037;-68
2021/10/18 01:55:21;;;;;;;38.75;18.40;;;8.40;99.90;;;;;;5034637;28;20038;-68
2021/10/18 01:57:51;;;;;;;53.03;22.13;;;8.20;99.90;;;;;;5033449;28;20038;-68
2021/10/18 02:00:17;;;;;;;40.88;20.40;;;8.30;99.90;;;;;;5049662;28;20056;-68
2021/10/18 02:02:43;;;;;;;39.40;19.20;;;8.30;99.90;;;;;;5034343;28;20049;-67
2021/10/18 02:05:09;;;;;;;35.00;19.10;;;8.30;99.90;;;;;;5049305;28;20037;-68
2021/10/18 02:07:35;;;;;;;47.67;21.23;;;8.40;99.90;;;;;;5049840;28;20033;-68
2021/10/18 02:10:02;;;;;;;47.55;22.17;;;8.50;99.90;;;;;;5034418;28;20040;-67
2021/10/18 02:12:28;;;;;;;41.88;20.35;;;8.50;99.90;;;;;;5049117;28;20537;-67
2021/10/18 02:14:54;;;;;;;41.55;19.73;;;8.50;99.90;;;;;;5049552;28;20033;-68
2021/10/18 02:17:20;;;;;;;48.15;22.17;;;8.50;99.90;;;;;;5034265;28;20125;-68
2021/10/18 02:19:46;;;;;;;51.28;23.08;;;8.60;99.90;;;;;;5033932;28;20591;-68
2021/10/18 02:22:11;;;;;;;50.45;24.05;;;8.70;99.90;;;;;;5033863;28;20037;-67
2021/10/18 02:24:37;;;;;;;48.67;22.17;;;8.60;99.90;;;;;;5034287;28;20100;-67
2021/10/18 02:27:03;;;;;;;46.40;22.23;;;8.60;99.90;;;;;;5032938;28;20033;-68
2021/10/18 02:29:29;;;;;;;49.45;22.77;;;8.60;99.90;;;;;;5033450;28;20479;-68
2021/10/18 02:31:54;;;;;;;48.72;22.88;;;8.60;99.90;;;;;;5032772;28;20450;-68
2021/10/18 02:34:20;;;;;;;49.70;23.02;;;8.60;99.90;;;;;;5033870;28;20043;-68
2021/10/18 02:36:46;;;;;;;47.45;21.80;;;8.50;99.90;;;;;;5033737;28;20116;-68
2021/10/18 02:39:12;;;;;;;52.97;23.25;;;8.50;99.90;;;;;;5033507;28;20040;-68
2021/10/18 02:41:37;;;;;;;53.45;23.80;;;8.50;99.90;;;;;;5033756;28;20039;-68
2021/10/18 02:44:03;;;;;;;50.50;24.52;;;8.60;99.90;;;;;;5033640;28;20037;-68
2021/10/18 02:46:29;;;;;;;48.42;23.70;;;8.60;99.90;;;;;;5033895;28;20087;-68
2021/10/18 02:48:55;;;;;;;53.45;24.70;;;8.60;99.90;;;;;;5032207;28;20025;-68
2021/10/18 02:51:21;;;;;;;57.47;25.55;;;8.60;99.90;;;;;;5033325;28;20041;-68
2021/10/18 02:53:46;;;;;;;54.33;25.00;;;8.70;99.90;;;;;;5048921;28;20037;-68
2021/10/18 02:56:12;;;;;;;59.28;26.85;;;8.70;99.90;;;;;;5033233;28;20038;-67
2021/10/18 02:58:38;;;;;;;53.13;24.98;;;8.70;99.90;;;;;;5033285;28;20512;-68
2021/10/18 03:01:04;;;;;;;55.95;25.48;;;8.70;99.90;;;;;;5031313;28;20030;-68
2021/10/18 03:03:30;;;;;;;51.30;25.33;;;8.70;99.90;;;;;;5048430;28;20048;-68
2021/10/18 03:05:56;;;;;;;60.10;24.17;;;8.70;99.90;;;;;;5048510;28;20026;-67
2021/10/18 03:08:21;;;;;;;51.80;23.20;;;8.80;99.90;;;;;;5048329;28;20043;-68
2021/10/18 03:10:47;;;;;;;52.60;23.88;;;8.90;99.90;;;;;;5033082;28;20387;-67
2021/10/18 03:13:14;;;;;;;52.38;25.35;;;8.80;99.90;;;;;;5032863;28;20088;-68
2021/10/18 03:15:40;;;;;;;50.85;23.30;;;8.80;99.90;;;;;;5033033;28;20045;-68
2021/10/18 03:18:07;;;;;;;51.83;22.23;;;8.90;99.90;;;;;;5048227;28;20056;-68
2021/10/18 03:20:32;;;;;;;48.65;22.35;;;9.00;99.90;;;;;;5032985;28;20041;-68
2021/10/18 03:22:58;;;;;;;49.28;22.10;;;9.20;99.90;;;;;;5032839;28;20029;-68
2021/10/18 03:25:24;;;;;;;44.63;21.00;;;9.00;99.90;;;;;;5048443;28;20654;-68
2021/10/18 03:27:50;;;;;;;42.58;20.05;;;9.00;99.90;;;;;;5048261;28;20088;-68
2021/10/18 03:30:16;;;;;;;43.90;21.98;;;9.00;99.90;;;;;;5048225;28;20536;-68
2021/10/18 03:32:42;;;;;;;39.20;19.35;;;9.10;99.90;;;;;;5032395;28;20029;-67
2021/10/18 03:35:08;;;;;;;41.30;20.75;;;9.20;99.90;;;;;;5032560;28;20080;-68
2021/10/18 03:37:34;;;;;;;43.53;21.10;;;9.20;99.90;;;;;;5032636;28;20080;-67
2021/10/18 03:40:00;;;;;;;51.30;22.98;;;9.20;99.90;;;;;;5057844;28;20390;-67
2021/10/18 03:42:26;;;;;;;48.35;23.63;;;9.20;99.90;;;;;;5033264;28;20434;-67
2021/10/18 03:44:52;;;;;;;48.58;23.27;;;9.10;99.90;;;;;;5048132;28;20394;-68
2021/10/18 03:47:18;;;;;;;49.08;23.15;;;9.10;99.90;;;;;;5050545;28;20025;-67
2021/10/18 03:49:44;;;;;;;48.70;24.27;;;9.10;99.90;;;;;;5052579;28;20400;-68
2021/10/18 03:52:10;;;;;;;53.80;25.15;;;9.00;99.90;;;;;;5052453;28;20428;-68
2021/10/18 03:54:35;;;;;;;58.17;26.25;;;9.20;99.90;;;;;;5067903;28;20095;-68
2021/10/18 03:57:02;;;;;;;47.22;23.98;;;9.20;99.90;;;;;;5052316;28;20060;-68
2021/10/18 03:59:28;;;;;;;49.50;24.10;;;9.30;99.90;;;;;;5052102;28;20033;-66
2021/10/18 04:01:53;;;;;;;46.85;22.77;;;9.30;99.90;;;;;;5052193;28;20028;-72
2021/10/18 04:04:20;;;;;;;50.00;23.75;;;9.30;99.90;;;;;;5067465;28;20033;-66
2021/10/18 04:06:45;;;;;;;45.88;22.73;;;9.20;99.90;;;;;;5067358;28;20047;-67
2021/10/18 04:09:12;;;;;;;42.47;21.30;;;9.20;99.90;;;;;;5050456;28;20478;-66
2021/10/18 04:11:38;;;;;;;52.92;22.60;;;9.30;99.90;;;;;;5051998;28;20028;-66
2021/10/18 04:14:08;;;;;;;42.38;21.75;;;9.20;99.90;;;;;;5050814;28;20040;-66
2021/10/18 04:16:34;;;;;;;46.42;20.88;;;9.20;99.90;;;;;;5052305;28;20025;-66
2021/10/18 04:19:01;;;;;;;44.75;22.13;;;9.20;99.90;;;;;;5051806;28;20045;-67
2021/10/18 04:21:27;;;;;;;44.00;20.60;;;9.20;99.90;;;;;;5050770;28;20029;-67
2021/10/18 04:23:53;;;;;;;41.85;20.45;;;9.10;99.90;;;;;;5050633;28;20025;-66
2021/10/18 04:26:19;;;;;;;46.13;22.55;;;9.30;99.90;;;;;;5052187;28;20108;-67
2021/10/18 04:28:45;;;;;;;47.25;20.98;;;9.30;99.90;;;;;;5050757;28;20028;-67
2021/10/18 04:31:11;;;;;;;48.33;21.48;;;9.30;99.90;;;;;;5052012;28;20090;-67
2021/10/18 04:33:37;;;;;;;43.05;21.48;;;9.40;99.90;;;;;;5052131;28;20103;-67
2021/10/18 04:36:04;;;;;;;39.75;20.38;;;9.30;99.90;;;;;;5051824;28;20091;-65
2021/10/18 04:38:30;;;;;;;43.63;19.92;;;9.30;99.90;;;;;;5045824;28;20048;-65
2021/10/18 04:40:55;;;;;;;48.30;23.85;;;9.50;99.90;;;;;;5047101;28;20041;-65
2021/10/18 04:43:21;;;;;;;42.38;19.88;;;9.50;99.90;;;;;;5031693;28;20108;-65
2021/10/18 04:45:47;;;;;;;46.42;20.73;;;9.50;99.90;;;;;;5032123;28;20087;-65
2021/10/18 04:48:14;;;;;;;42.75;20.77;;;9.40;99.90;;;;;;5047184;28;20034;-66
2021/10/18 04:50:40;;;;;;;45.67;20.90;;;9.40;99.90;;;;;;5031636;28;20048;-65
2021/10/18 04:53:06;;;;;;;48.88;21.13;;;9.30;99.90;;;;;;5031838;28;20041;-65
2021/10/18 04:55:32;;;;;;;46.30;22.40;;;9.30;99.90;;;;;;5031807;28;20025;-65
2021/10/18 04:58:01;;;;;;;43.70;21.27;;;9.50;99.90;;;;;;5031850;28;20121;-65
2021/10/18 05:00:29;;;;;;;48.08;22.48;;;9.40;99.90;;;;;;5031523;28;20030;-65
2021/10/18 05:02:56;;;;;;;53.47;24.33;;;9.40;99.90;;;;;;5031701;28;20457;-65
2021/10/18 05:05:23;;;;;;;50.95;23.67;;;9.30;99.90;;;;;;5046751;28;20021;-65
2021/10/18 05:08:11;;;;;;;52.10;24.45;;;9.30;99.90;;;;;;5032006;28;20035;-65
2021/10/18 05:10:39;;;;;;;49.20;21.20;;;9.40;99.90;;;;;;5030675;28;20069;-65
2021/10/18 05:13:05;;;;;;;52.63;22.80;;;9.20;99.90;;;;;;5031719;28;20429;-65
2021/10/18 05:15:32;;;;;;;50.65;25.33;;;9.40;99.90;;;;;;5031382;28;20033;-64
2021/10/18 05:17:58;;;;;;;53.42;23.83;;;9.50;99.90;;;;;;5031617;28;20057;-66
2021/10/18 05:20:23;;;;;;;57.67;24.45;;;9.30;99.90;;;;;;5030142;28;20034;-65
2021/10/18 05:22:50;;;;;;;55.85;24.27;;;9.10;99.90;;;;;;5032770;28;20048;-65
2021/10/18 05:25:16;;;;;;;54.78;24.45;;;9.10;99.90;;;;;;5044319;28;20034;-65
2021/10/18 05:27:42;;;;;;;55.28;23.15;;;9.10;99.90;;;;;;5035232;28;20443;-65
2021/10/18 05:30:10;;;;;;;46.85;22.38;;;9.20;99.90;;;;;;5034747;28;20084;-65
2021/10/18 05:32:37;;;;;;;56.50;23.95;;;9.20;99.90;;;;;;5034521;28;20679;-65
2021/10/18 05:35:04;;;;;;;50.00;24.30;;;9.20;99.90;;;;;;5034704;28;20025;-65
2021/10/18 05:37:30;;;;;;;56.92;24.80;;;9.20;99.90;;;;;;5034818;28;20692;-61
2021/10/18 05:39:56;;;;;;;51.55;23.70;;;9.30;99.90;;;;;;5034789;28;20129;-60
2021/10/18 05:42:22;;;;;;;49.45;23.90;;;9.40;99.90;;;;;;5049718;28;20064;-61
2021/10/18 05:44:47;;;;;;;48.90;23.15;;;9.40;99.90;;;;;;5040227;28;20223;-66
2021/10/18 05:47:13;;;;;;;50.58;24.75;;;9.20;99.90;;;;;;5053503;28;20037;-66
2021/10/18 05:49:39;;;;;;;55.03;24.17;;;9.30;99.90;;;;;;5055594;28;20037;-67
2021/10/18 05:52:05;;;;;;;52.83;25.00;;;9.40;99.90;;;;;;5054264;28;20021;-66
2021/10/18 05:54:32;;;;;;;55.72;24.08;;;9.30;99.90;;;;;;5069545;28;20052;-66
2021/10/18 05:56:57;;;;;;;62.92;26.77;;;9.10;99.90;;;;;;5054332;28;20025;-66
2021/10/18 05:59:23;;;;;;;55.38;24.95;;;9.00;99.90;;;;;;5054472;28;20033;-66
2021/10/18 06:01:49;;;;;;;56.63;25.88;;;9.20;99.90;;;;;;5069533;28;20082;-67
2021/10/18 06:04:16;;;;;;;63.25;25.88;;;9.30;99.90;;;;;;5053962;28;20029;-67
2021/10/18 06:06:42;;;;;;;56.20;25.70;;;9.20;99.90;;;;;;5069369;28;20025;-66
2021/10/18 06:09:10;;;;;;;56.40;26.63;;;9.20;99.90;;;;;;5053920;28;20044;-66
2021/10/18 06:11:35;;;;;;;53.92;25.25;;;9.20;99.90;;;;;;5054109;28;20029;-66
2021/10/18 06:14:01;;;;;;;58.10;25.80;;;9.20;99.90;;;;;;5069744;28;20043;-66
2021/10/18 06:16:27;;;;;;;58.97;27.17;;;9.10;99.90;;;;;;5069437;28;20129;-66
2021/10/18 06:18:53;;;;;;;56.47;27.05;;;9.00;99.90;;;;;;5053852;28;20044;-66
2021/10/18 06:21:18;;;;;;;58.72;26.52;;;9.00;99.90;;;;;;5053958;28;20053;-66
2021/10/18 06:23:44;;;;;;;49.95;23.55;;;9.10;99.90;;;;;;5053648;28;20028;-66
2021/10/18 06:26:11;;;;;;;54.08;24.42;;;9.20;99.90;;;;;;5069143;28;20033;-66
2021/10/18 06:28:39;;;;;;;54.45;25.10;;;9.20;99.90;;;;;;5053321;28;20080;-66
2021/10/18 06:31:05;;;;;;;49.13;23.33;;;9.20;99.90;;;;;;5069064;28;20032;-66
2021/10/18 06:33:32;;;;;;;51.60;24.00;;;9.20;99.90;;;;;;5052783;28;20123;-66
2021/10/18 06:35:58;;;;;;;52.38;22.90;;;9.30;99.90;;;;;;5053136;28;20048;-66
2021/10/18 06:38:24;;;;;;;48.25;22.92;;;9.20;99.90;;;;;;5053548;28;20481;-66
2021/10/18 06:40:50;;;;;;;47.28;21.52;;;9.20;99.90;;;;;;5053452;28;20102;-66
2021/10/18 06:43:18;;;;;;;50.53;22.08;;;9.30;99.90;;;;;;5068568;28;20060;-66
2021/10/18 06:45:46;;;;;;;40.45;20.42;;;9.30;99.90;;;;;;5053626;28;20040;-66
2021/10/18 06:48:14;;;;;;;41.33;20.15;;;9.40;99.90;;;;;;5068633;28;20478;-66
2021/10/18 06:50:43;;;;;;;35.60;18.23;;;9.30;99.90;;;;;;5053245;28;20033;-66
2021/10/18 06:53:17;;;;;;;40.88;19.52;;;9.40;99.90;;;;;;5068268;28;20441;-66
2021/10/18 06:55:43;;;;;;;42.50;20.42;;;9.30;99.90;;;;;;5053289;28;20025;-66
2021/10/18 06:58:10;;;;;;;41.70;19.58;;;9.20;99.90;;;;;;5068752;28;20083;-66
2021/10/18 07:00:36;;;;;;;43.03;20.67;;;9.20;99.90;;;;;;5068108;28;20112;-66
2021/10/18 07:03:03;;;;;;;39.80;19.10;;;9.30;99.90;;;;;;5053022;28;20490;-66
2021/10/18 07:05:29;;;;;;;43.55;19.58;;;9.30;99.90;;;;;;5053187;28;20462;-66
2021/10/18 07:07:54;;;;;;;42.10;19.48;;;9.10;99.90;;;;;;5068267;28;20040;-66
2021/10/18 07:10:20;;;;;;;41.78;19.73;;;9.10;99.90;;;;;;5053003;28;20111;-66
2021/10/18 07:12:46;;;;;;;39.17;19.38;;;9.10;99.90;;;;;;5052601;28;20036;-66
2021/10/18 07:15:12;;;;;;;41.13;19.55;;;9.30;99.90;;;;;;5052973;28;20084;-66
2021/10/18 07:17:37;;;;;;;47.10;20.02;;;9.20;99.90;;;;;;5052467;28;20037;-66
2021/10/18 07:20:06;;;;;;;44.92;21.20;;;9.20;99.90;;;;;;5053078;28;20021;-66
2021/10/18 07:22:57;;;;;;;40.70;20.15;;;9.30;99.90;;;;;;5052691;28;20120;-66
2021/10/18 07:25:20;;;;;;;36.22;18.60;;;9.30;99.90;;;;;;5052283;28;20067;-66
2021/10/18 07:27:46;;;;;;;37.38;18.65;;;9.40;99.90;;;;;;5052646;28;20037;-66
2021/10/18 07:30:12;;;;;;;38.78;19.13;;;9.30;99.90;;;;;;5052852;28;20123;-66
2021/10/18 07:32:44;;;;;;;42.28;19.23;;;9.50;99.90;;;;;;5052145;28;20033;-66
2021/10/18 07:35:13;;;;;;;42.03;18.17;;;9.60;99.90;;;;;;5052552;28;20387;-66
2021/10/18 07:37:48;;;;;;;35.63;18.23;;;9.70;99.90;;;;;;5052596;28;20029;-66
2021/10/18 07:40:14;;;;;;;40.28;18.25;;;9.60;99.90;;;;;;5067181;28;20029;-66
2021/10/18 07:42:40;;;;;;;41.38;19.25;;;9.50;99.90;;;;;;5050806;28;20052;-66
2021/10/18 07:45:08;;;;;;;39.30;18.95;;;9.50;99.90;;;;;;5052318;28;20037;-66
2021/10/18 07:47:34;;;;;;;44.63;18.40;;;9.70;99.90;;;;;;5052181;28;20029;-67
2021/10/18 07:49:59;;;;;;;38.45;18.42;;;9.70;99.90;;;;;;5052216;28;20041;-66
2021/10/18 07:52:26;;;;;;;38.97;18.15;;;9.90;99.90;;;;;;5051598;28;20069;-66
2021/10/18 07:54:55;;;;;;;41.75;18.67;;;9.90;99.90;;;;;;5052141;28;20079;-66
2021/10/18 07:57:21;;;;;;;40.72;19.30;;;9.80;99.90;;;;;;5052344;28;20025;-66
2021/10/18 07:59:46;;;;;;;38.00;18.02;;;9.70;99.90;;;;;;5067947;28;20381;-66
2021/10/18 08:02:12;;;;;;;33.88;17.38;;;9.70;99.90;;;;;;5052236;28;20029;-66
2021/10/18 08:04:38;;;;;;;38.40;18.63;;;9.80;99.90;;;;;;5052133;28;20065;-66
2021/10/18 08:07:04;;;;;;;42.22;19.20;;;9.90;99.90;;;;;;5052146;28;20029;-66
2021/10/18 08:09:29;;;;;;;37.53;17.40;;;9.90;99.90;;;;;;5051793;28;20033;-66
2021/10/18 08:11:55;;;;;;;34.63;16.75;;;9.90;99.90;;;;;;5052377;28;20385;-66
2021/10/18 08:14:22;;;;;;;37.10;18.27;;;10.10;99.90;;;;;;5051835;28;20199;-66
2021/10/18 08:16:48;;;;;;;40.63;17.85;;;10.20;99.90;;;;;;5051765;28;20033;-66
2021/10/18 08:19:13;;;;;;;38.83;18.13;;;10.20;99.90;;;;;;5051787;28;20132;-66
2021/10/18 08:21:39;;;;;;;36.35;17.70;;;10.30;99.90;;;;;;5051906;28;20037;-66
2021/10/18 08:24:05;;;;;;;36.88;17.25;;;10.40;99.90;;;;;;5067551;28;20043;-66
2021/10/18 08:26:31;;;;;;;37.00;17.35;;;10.20;99.90;;;;;;5051763;28;20025;-66
2021/10/18 08:28:57;;;;;;;34.63;16.27;;;10.50;99.90;;;;;;5051780;28;20040;-66
2021/10/18 08:31:22;;;;;;;31.25;15.85;;;10.40;99.90;;;;;;5051710;28;20044;-66
2021/10/18 08:33:48;;;;;;;37.47;16.80;;;10.30;99.90;;;;;;5067244;28;20072;-66
2021/10/18 08:36:15;;;;;;;39.17;18.27;;;10.40;99.90;;;;;;5052102;28;20056;-66
2021/10/18 08:38:46;;;;;;;44.10;21.33;;;10.20;99.90;;;;;;5051581;28;20041;-65
2021/10/18 08:46:25;;;;;;;36.75;19.05;;;10.60;99.90;;;;;;5051637;28;20171;-66
2021/10/18 08:48:55;;;;;;;40.00;19.58;;;10.50;99.90;;;;;;5067078;28;20041;-65
2021/10/18 08:51:21;;;;;;;35.38;17.88;;;10.50;99.90;;;;;;5051778;28;20029;-65
2021/10/18 08:53:51;;;;;;;39.78;19.52;;;10.60;99.90;;;;;;5066657;28;20040;-65
2021/10/18 08:56:17;;;;;;;38.03;18.02;;;10.60;99.90;;;;;;5051608;28;20514;-66
2021/10/18 08:58:46;;;;;;;39.80;18.95;;;10.60;99.90;;;;;;5069468;28;20033;-66
2021/10/18 09:01:12;;;;;;;34.40;18.52;;;10.90;99.90;;;;;;5055459;28;20073;-65
2021/10/18 09:03:38;;;;;;;34.15;18.35;;;10.70;99.90;;;;;;5071011;28;20032;-65
2021/10/18 09:06:21;;;;;;;33.22;17.48;;;10.60;99.90;;;;;;5055287;28;20032;-65
2021/10/18 09:08:56;;;;;;;34.83;18.08;;;10.70;99.90;;;;;;5055147;28;20037;-65
2021/10/18 09:11:26;;;;;;;34.38;17.42;;;10.80;99.90;;;;;;5055275;28;20393;-66
2021/10/18 09:13:52;;;;;;;33.97;18.00;;;10.80;99.90;;;;;;5070622;28;20499;-65
2021/10/18 09:16:48;;;;;;;31.95;16.55;;;10.90;99.90;;;;;;5055431;28;20108;-65
2021/10/18 09:19:26;;;;;;;35.05;16.50;;;11.00;99.90;;;;;;5053307;28;20568;-65
2021/10/18 09:22:06;;;;;;;31.60;17.73;;;11.10;99.90;;;;;;5054932;28;20385;-66
2021/10/18 09:24:34;;;;;;;34.25;16.70;;;11.00;99.90;;;;;;5070069;28;20115;-65
2021/10/18 09:27:16;;;;;;;38.67;16.02;;;11.00;99.90;;;;;;5054833;28;20509;-65
2021/10/18 09:29:48;;;;;;;34.00;17.02;;;11.20;99.90;;;;;;5069429;28;20080;-66
2021/10/18 09:32:29;;;;;;;33.63;17.30;;;11.30;99.90;;;;;;5055147;28;20032;-65
2021/10/18 09:35:05;;;;;;;31.83;15.65;;;11.30;99.90;;;;;;5054861;28;20398;-66
2021/10/18 09:37:42;;;;;;;32.03;16.42;;;11.40;99.90;;;;;;5054706;28;20029;-65
2021/10/18 09:40:09;;;;;;;29.23;16.08;;;11.40;99.90;;;;;;5053505;28;20025;-65
2021/10/18 09:42:35;;;;;;;27.92;16.10;;;11.40;99.90;;;;;;5069979;28;20111;-65
2021/10/18 10:51:35;;;;;;;25.60;14.93;;;12.40;99.90;;;;;;5053285;28;20159;-67
2021/10/18 10:54:03;;;;;;;25.02;13.07;;;12.20;99.90;;;;;;5052249;28;20056;-67
2021/10/18 10:56:47;;;;;;;25.55;13.63;;;12.40;99.90;;;;;;5067978;28;20064;-67
2021/10/18 10:59:28;;;;;;;26.15;14.00;;;12.60;99.90;;;;;;5053520;28;20362;-67
2021/10/18 11:02:01;;;;;;;24.95;13.60;;;12.90;99.90;;;;;;5052065;28;20128;-67
2021/10/18 11:04:30;;;;;;;25.40;13.55;;;13.40;99.90;;;;;;5051643;28;20427;-67
2021/10/18 11:07:12;;;;;;;22.25;12.35;;;13.60;99.90;;;;;;5053369;28;20028;-67
2021/10/18 11:09:53;;;;;;;22.60;13.63;;;13.60;99.90;;;;;;5052572;28;20029;-66
2021/10/18 11:12:28;;;;;;;22.88;13.57;;;13.30;99.90;;;;;;5052885;28;20036;-67
2021/10/18 11:15:10;;;;;;;25.73;13.38;;;13.30;99.90;;;;;;5067628;28;20037;-67
2021/10/18 11:17:41;;;;;;;24.88;14.40;;;13.90;99.90;;;;;;5067976;28;20108;-66
2021/10/18 11:20:22;;;;;;;20.83;12.73;;;13.60;99.90;;;;;;5067584;28;20554;-68
2021/10/18 11:22:54;;;;;;;23.50;12.27;;;14.20;99.90;;;;;;5068208;28;20032;-66
2021/10/18 11:25:24;;;;;;;22.58;13.10;;;14.20;99.90;;;;;;5052913;28;20417;-67
2021/10/18 11:27:56;;;;;;;25.67;13.97;;;13.90;99.90;;;;;;5052953;28;20576;-67
2021/10/18 11:30:26;;;;;;;23.50;12.45;;;13.80;99.90;;;;;;5052447;28;20025;-67
2021/10/18 11:33:06;;;;;;;20.67;11.80;;;14.20;99.90;;;;;;5067729;28;20033;-67
2021/10/18 11:35:34;;;;;;;21.00;12.37;;;14.30;99.90;;;;;;5052376;28;20147;-66
2021/10/18 11:38:04;;;;;;;20.70;11.98;;;14.40;99.90;;;;;;5067754;28;20271;-67
2021/10/18 11:40:35;;;;;;;22.85;11.52;;;14.30;99.90;;;;;;5052141;28;20033;-66
2021/10/18 11:43:07;;;;;;;17.83;11.50;;;14.60;99.90;;;;;;5051932;28;20025;-68
2021/10/18 11:45:42;;;;;;;19.63;12.27;;;14.40;99.90;;;;;;5052236;28;20536;-66
2021/10/18 11:48:12;;;;;;;22.13;12.45;;;14.90;99.90;;;;;;5067777;28;20449;-67
2021/10/18 11:50:40;;;;;;;21.52;11.38;;;14.70;99.90;;;;;;5052330;28;20500;-67
2021/10/18 11:53:23;;;;;;;19.65;11.32;;;16.00;99.90;;;;;;5067407;28;20459;-67
2021/10/18 11:55:53;;;;;;;18.13;10.75;;;16.10;99.90;;;;;;5052143;28;20486;-67
2021/10/18 11:58:31;;;;;;;21.23;11.18;;;16.20;99.90;;;;;;5049850;28;20123;-67
2021/10/18 12:01:01;;;;;;;19.80;10.38;;;17.40;99.90;;;;;;5051514;28;20043;-67
2021/10/18 12:03:32;;;;;;;19.50;11.38;;;15.70;99.90;;;;;;5052437;28;20052;-66
2021/10/18 12:06:01;;;;;;;15.25;9.45;;;15.20;99.90;;;;;;5067343;28;20108;-67
2021/10/18 12:08:28;;;;;;;20.10;10.10;;;15.30;99.90;;;;;;5050929;28;20107;-67
2021/10/18 12:10:59;;;;;;;19.70;10.30;;;15.60;99.90;;;;;;5051696;28;20032;-67
2021/10/18 12:13:33;;;;;;;18.13;10.90;;;15.30;99.90;;;;;;5052340;28;20123;-66
2021/10/18 12:16:29;;;;;;;21.13;11.40;;;15.30;99.90;;;;;;5051885;28;20379;-67
2021/10/18 12:18:59;;;;;;;19.33;11.30;;;15.80;99.90;;;;;;5051454;28;20075;-67
2021/10/18 12:21:36;;;;;;;22.77;12.15;;;15.80;99.90;;;;;;5051798;28;20494;-67
2021/10/18 12:24:34;;;;;;;17.98;10.15;;;15.10;99.90;;;;;;5067325;28;20040;-67
2021/10/18 12:27:03;;;;;;;22.73;11.45;;;14.90;99.90;;;;;;5035420;28;20094;-67
2021/10/18 12:29:37;;;;;;;17.90;10.27;;;15.00;99.90;;;;;;5052116;28;20131;-67
2021/10/18 12:32:07;;;;;;;19.33;10.35;;;14.70;99.90;;;;;;5068804;28;20552;-67
2021/10/18 12:34:32;;;;;;;20.13;10.88;;;15.00;99.90;;;;;;5055772;28;20114;-67
2021/10/18 12:37:10;;;;;;;20.80;9.73;;;15.30;99.90;;;;;;5056053;28;20056;-67
2021/10/18 12:39:54;;;;;;;16.77;9.77;;;16.00;99.90;;;;;;5054567;28;20037;-68
2021/10/18 12:42:20;;;;;;;16.52;10.05;;;16.20;99.90;;;;;;5071224;28;20045;-67
2021/10/18 12:44:50;;;;;;;17.95;8.85;;;16.10;99.90;;;;;;5055861;28;20033;-67
2021/10/18 12:47:24;;;;;;;16.08;10.15;;;16.00;99.90;;;;;;5054595;28;20110;-67
2021/10/18 12:50:23;;;;;;;16.33;9.45;;;15.80;99.90;;;;;;5070324;28;20358;-67
2021/10/18 12:53:30;;;;;;;15.85;9.48;;;16.00;99.90;;;;;;5048817;28;20065;-67
2021/10/18 12:55:57;;;;;;;17.27;10.15;;;16.30;99.90;;;;;;5055320;28;20453;-67
2021/10/18 12:58:23;;;;;;;16.40;9.35;;;16.20;99.90;;;;;;5055448;28;20115;-67
2021/10/18 13:00:49;;;;;;;17.75;9.80;;;15.60;99.90;;;;;;5070457;28;20108;-67
2021/10/18 13:03:21;;;;;;;20.52;10.80;;;15.70;99.90;;;;;;5055351;28;20543;-67
2021/10/18 13:05:48;;;;;;;18.27;9.90;;;15.80;99.90;;;;;;5070568;28;20112;-67
2021/10/18 13:08:16;;;;;;;16.55;10.07;;;15.60;99.90;;;;;;5055395;28;20032;-68
2021/10/18 13:10:44;;;;;;;15.95;9.15;;;15.40;99.90;;;;;;5055056;28;20040;-67
2021/10/18 13:13:12;;;;;;;16.38;9.40;;;15.30;99.90;;;;;;5051834;28;20512;-67
2021/10/18 13:15:40;;;;;;;17.13;10.00;;;15.70;99.90;;;;;;5068430;28;20447;-67
2021/10/18 13:18:08;;;;;;;20.08;9.10;;;15.80;99.90;;;;;;5053489;28;20048;-68
2021/10/18 13:20:34;;;;;;;17.50;9.27;;;16.90;99.90;;;;;;5068737;28;20078;-67
2021/10/18 13:23:05;;;;;;;17.02;9.88;;;16.60;99.90;;;;;;5054370;28;20048;-66
2021/10/18 13:25:33;;;;;;;;;;;16.50;99.90;;;;;;5060921;28;20533;-66
2021/10/18 13:28:00;;;;;;;16.23;9.10;;;16.10;99.90;;;;;;5047635;28;19970;-66
2021/10/18 13:30:27;;;;;;;17.65;10.07;;;15.90;99.90;;;;;;5042411;28;20025;-66
2021/10/18 13:32:54;;;;;;;17.48;9.60;;;16.10;99.90;;;;;;5047310;28;20037;-66
2021/10/18 13:35:23;;;;;;;18.38;9.70;;;15.90;99.90;;;;;;5053445;28;20033;-66
2021/10/18 13:37:49;;;;;;;15.70;8.93;;;16.30;99.90;;;;;;5052770;28;20029;-67
2021/10/18 13:40:18;;;;;;;18.13;9.52;;;16.50;99.90;;;;;;5054189;28;20373;-67
2021/10/18 13:42:46;;;;;;;17.23;9.60;;;16.70;99.90;;;;;;5052723;28;20040;-66
2021/10/18 13:45:18;;;;;;;19.00;10.88;;;16.90;99.90;;;;;;5053756;28;20036;-66
2021/10/18 13:47:44;;;;;;;15.98;9.45;;;17.10;99.90;;;;;;5052859;28;20033;-66
2021/10/18 13:50:10;;;;;;;16.55;8.88;;;17.10;99.90;;;;;;5053119;28;20088;-66
2021/10/18 13:52:36;;;;;;;18.02;9.15;;;17.20;99.90;;;;;;5052696;28;20436;-66